sensor_id;sensor_type;location;lat;lon;timestamp;P1;durP1;ratioP1;P2;durP2;ratioP2
18290;SDS011;9271;48.590;8.866;2024-03-08T00:00:03;19.73;;;14.87;;
18290;SDS011;9271;48.590;8.866;2024-03-08T00:02:34;18.60;;;13.10;;
18290;SDS011;9271;48.590;8.866;2024-03-08T00:05:01;20.47;;;13.57;;
18290;SDS011;9271;48.590;8.866;2024-03-08T00:07:30;19.20;;;13.97;;
18290;SDS011;9271;48.590;8.866;2024-03-08T00:09:56;17.40;;;13.63;;
18290;SDS011;9271;48.590;8.866;2024-03-08T00:12:23;16.27;;;13.07;;
18290;SDS011;9271;48.590;8.866;2024-03-08T00:14:50;18.47;;;13.40;;
18290;SDS011;9271;48.590;8.866;2024-03-08T00:17:17;20.17;;;14.13;;
18290;SDS011;9271;48.590;8.866;2024-03-08T00:19:44;16.63;;;13.30;;
18290;SDS011;9271;48.590;8.866;2024-03-08T00:22:10;20.00;;;14.10;;
18290;SDS011;9271;48.590;8.866;2024-03-08T00:24:38;20.03;;;13.97;;
18290;SDS011;9271;48.590;8.866;2024-03-08T00:27:05;18.67;;;14.30;;
18290;SDS011;9271;48.590;8.866;2024-03-08T00:29:32;17.90;;;13.47;;
18290;SDS011;9271;48.590;8.866;2024-03-08T00:31:59;19.30;;;13.80;;
18290;SDS011;9271;48.590;8.866;2024-03-08T00:34:26;18.17;;;13.47;;
18290;SDS011;9271;48.590;8.866;2024-03-08T00:36:52;17.00;;;13.57;;
18290;SDS011;9271;48.590;8.866;2024-03-08T00:39:19;19.33;;;14.50;;
18290;SDS011;9271;48.590;8.866;2024-03-08T00:41:47;22.17;;;14.33;;
18290;SDS011;9271;48.590;8.866;2024-03-08T00:44:14;20.77;;;13.93;;
18290;SDS011;9271;48.590;8.866;2024-03-08T00:46:40;20.43;;;14.10;;
18290;SDS011;9271;48.590;8.866;2024-03-08T00:49:08;21.03;;;14.83;;
18290;SDS011;9271;48.590;8.866;2024-03-08T00:51:34;19.90;;;14.37;;
18290;SDS011;9271;48.590;8.866;2024-03-08T00:54:01;21.60;;;14.53;;
18290;SDS011;9271;48.590;8.866;2024-03-08T00:56:27;22.63;;;14.93;;
18290;SDS011;9271;48.590;8.866;2024-03-08T00:58:55;21.07;;;15.10;;
18290;SDS011;9271;48.590;8.866;2024-03-08T01:01:22;21.17;;;15.23;;
18290;SDS011;9271;48.590;8.866;2024-03-08T01:03:49;20.77;;;14.83;;
18290;SDS011;9271;48.590;8.866;2024-03-08T01:06:16;22.10;;;15.40;;
18290;SDS011;9271;48.590;8.866;2024-03-08T01:08:43;20.90;;;15.07;;
18290;SDS011;9271;48.590;8.866;2024-03-08T01:11:10;23.73;;;15.20;;
18290;SDS011;9271;48.590;8.866;2024-03-08T01:13:38;23.40;;;15.57;;
18290;SDS011;9271;48.590;8.866;2024-03-08T01:16:07;23.40;;;16.27;;
18290;SDS011;9271;48.590;8.866;2024-03-08T01:18:33;26.00;;;16.30;;
18290;SDS011;9271;48.590;8.866;2024-03-08T01:21:00;22.97;;;16.10;;
18290;SDS011;9271;48.590;8.866;2024-03-08T01:23:27;22.53;;;15.93;;
18290;SDS011;9271;48.590;8.866;2024-03-08T01:25:54;22.93;;;15.33;;
18290;SDS011;9271;48.590;8.866;2024-03-08T01:28:22;22.83;;;16.23;;
18290;SDS011;9271;48.590;8.866;2024-03-08T01:30:49;23.47;;;15.67;;
18290;SDS011;9271;48.590;8.866;2024-03-08T01:33:21;22.83;;;15.83;;
18290;SDS011;9271;48.590;8.866;2024-03-08T01:35:48;22.90;;;15.30;;
18290;SDS011;9271;48.590;8.866;2024-03-08T01:38:15;24.73;;;15.80;;
18290;SDS011;9271;48.590;8.866;2024-03-08T01:40:42;24.27;;;16.83;;
18290;SDS011;9271;48.590;8.866;2024-03-08T01:43:16;32.23;;;16.63;;
18290;SDS011;9271;48.590;8.866;2024-03-08T01:45:46;23.70;;;15.90;;
18290;SDS011;9271;48.590;8.866;2024-03-08T01:48:13;25.87;;;16.20;;
18290;SDS011;9271;48.590;8.866;2024-03-08T01:50:42;26.70;;;17.23;;
18290;SDS011;9271;48.590;8.866;2024-03-08T01:53:09;24.80;;;16.80;;
18290;SDS011;9271;48.590;8.866;2024-03-08T01:55:36;25.57;;;16.87;;
18290;SDS011;9271;48.590;8.866;2024-03-08T01:58:04;26.17;;;16.27;;
18290;SDS011;9271;48.590;8.866;2024-03-08T02:00:32;23.73;;;16.07;;
18290;SDS011;9271;48.590;8.866;2024-03-08T02:02:59;27.23;;;16.33;;
18290;SDS011;9271;48.590;8.866;2024-03-08T02:05:27;27.63;;;16.40;;
18290;SDS011;9271;48.590;8.866;2024-03-08T02:07:55;26.97;;;16.93;;
18290;SDS011;9271;48.590;8.866;2024-03-08T02:10:22;25.30;;;16.43;;
18290;SDS011;9271;48.590;8.866;2024-03-08T02:12:49;23.00;;;16.30;;
18290;SDS011;9271;48.590;8.866;2024-03-08T02:15:15;27.90;;;18.13;;
18290;SDS011;9271;48.590;8.866;2024-03-08T02:17:42;28.20;;;17.27;;
18290;SDS011;9271;48.590;8.866;2024-03-08T02:20:09;26.83;;;17.50;;
18290;SDS011;9271;48.590;8.866;2024-03-08T02:22:39;28.07;;;16.23;;
18290;SDS011;9271;48.590;8.866;2024-03-08T02:25:06;29.03;;;17.63;;
18290;SDS011;9271;48.590;8.866;2024-03-08T02:27:34;24.83;;;16.57;;
18290;SDS011;9271;48.590;8.866;2024-03-08T02:30:01;28.83;;;17.70;;
18290;SDS011;9271;48.590;8.866;2024-03-08T02:32:27;28.23;;;17.57;;
18290;SDS011;9271;48.590;8.866;2024-03-08T02:34:56;27.33;;;17.60;;
18290;SDS011;9271;48.590;8.866;2024-03-08T02:37:25;24.23;;;16.43;;
18290;SDS011;9271;48.590;8.866;2024-03-08T02:39:54;25.43;;;15.77;;
18290;SDS011;9271;48.590;8.866;2024-03-08T02:42:21;23.60;;;15.13;;
18290;SDS011;9271;48.590;8.866;2024-03-08T02:44:48;26.60;;;17.07;;
18290;SDS011;9271;48.590;8.866;2024-03-08T02:47:14;25.13;;;16.97;;
18290;SDS011;9271;48.590;8.866;2024-03-08T02:49:41;29.63;;;16.80;;
18290;SDS011;9271;48.590;8.866;2024-03-08T02:52:08;30.07;;;17.63;;
18290;SDS011;9271;48.590;8.866;2024-03-08T02:54:34;28.23;;;18.40;;
18290;SDS011;9271;48.590;8.866;2024-03-08T02:57:03;24.77;;;16.80;;
18290;SDS011;9271;48.590;8.866;2024-03-08T02:59:32;26.30;;;16.93;;
18290;SDS011;9271;48.590;8.866;2024-03-08T03:01:58;27.33;;;16.63;;
18290;SDS011;9271;48.590;8.866;2024-03-08T03:04:25;27.17;;;16.63;;
18290;SDS011;9271;48.590;8.866;2024-03-08T03:06:52;29.37;;;16.70;;
18290;SDS011;9271;48.590;8.866;2024-03-08T03:09:19;27.17;;;16.87;;
18290;SDS011;9271;48.590;8.866;2024-03-08T03:11:48;25.20;;;16.10;;
18290;SDS011;9271;48.590;8.866;2024-03-08T03:14:16;24.20;;;16.27;;
18290;SDS011;9271;48.590;8.866;2024-03-08T03:16:44;27.00;;;15.67;;
18290;SDS011;9271;48.590;8.866;2024-03-08T03:19:10;26.83;;;16.43;;
18290;SDS011;9271;48.590;8.866;2024-03-08T03:21:37;25.80;;;16.70;;
18290;SDS011;9271;48.590;8.866;2024-03-08T03:24:04;27.77;;;16.43;;
18290;SDS011;9271;48.590;8.866;2024-03-08T03:26:35;24.43;;;15.37;;
18290;SDS011;9271;48.590;8.866;2024-03-08T03:29:02;24.20;;;16.60;;
18290;SDS011;9271;48.590;8.866;2024-03-08T03:31:32;25.57;;;15.30;;
18290;SDS011;9271;48.590;8.866;2024-03-08T03:33:59;28.23;;;16.30;;
18290;SDS011;9271;48.590;8.866;2024-03-08T03:36:27;26.90;;;15.70;;
18290;SDS011;9271;48.590;8.866;2024-03-08T03:38:54;27.20;;;16.00;;
18290;SDS011;9271;48.590;8.866;2024-03-08T03:41:30;26.63;;;15.77;;
18290;SDS011;9271;48.590;8.866;2024-03-08T03:43:56;25.83;;;15.37;;
18290;SDS011;9271;48.590;8.866;2024-03-08T03:46:24;23.13;;;14.73;;
18290;SDS011;9271;48.590;8.866;2024-03-08T03:48:53;26.50;;;15.53;;
18290;SDS011;9271;48.590;8.866;2024-03-08T03:51:20;26.50;;;15.37;;
18290;SDS011;9271;48.590;8.866;2024-03-08T03:53:47;24.20;;;15.33;;
18290;SDS011;9271;48.590;8.866;2024-03-08T03:56:13;26.47;;;16.53;;
18290;SDS011;9271;48.590;8.866;2024-03-08T03:58:40;26.40;;;15.73;;
18290;SDS011;9271;48.590;8.866;2024-03-08T04:01:07;28.33;;;16.93;;
18290;SDS011;9271;48.590;8.866;2024-03-08T04:03:34;24.33;;;15.97;;
18290;SDS011;9271;48.590;8.866;2024-03-08T04:06:03;27.67;;;15.93;;
18290;SDS011;9271;48.590;8.866;2024-03-08T04:08:30;25.07;;;15.30;;
18290;SDS011;9271;48.590;8.866;2024-03-08T04:10:59;27.23;;;15.77;;
18290;SDS011;9271;48.590;8.866;2024-03-08T04:13:26;26.23;;;14.90;;
18290;SDS011;9271;48.590;8.866;2024-03-08T04:15:52;25.67;;;15.90;;
18290;SDS011;9271;48.590;8.866;2024-03-08T04:18:19;27.07;;;15.50;;
18290;SDS011;9271;48.590;8.866;2024-03-08T04:20:46;25.10;;;14.73;;
18290;SDS011;9271;48.590;8.866;2024-03-08T04:23:14;28.67;;;16.30;;
18290;SDS011;9271;48.590;8.866;2024-03-08T04:25:41;27.63;;;16.27;;
18290;SDS011;9271;48.590;8.866;2024-03-08T04:28:08;27.00;;;16.23;;
18290;SDS011;9271;48.590;8.866;2024-03-08T04:30:36;28.20;;;16.03;;
18290;SDS011;9271;48.590;8.866;2024-03-08T04:33:04;28.20;;;16.43;;
18290;SDS011;9271;48.590;8.866;2024-03-08T04:35:32;29.63;;;16.63;;
18290;SDS011;9271;48.590;8.866;2024-03-08T04:37:58;27.13;;;16.33;;
18290;SDS011;9271;48.590;8.866;2024-03-08T04:40:26;30.73;;;16.70;;
18290;SDS011;9271;48.590;8.866;2024-03-08T04:42:53;27.47;;;16.33;;
18290;SDS011;9271;48.590;8.866;2024-03-08T04:45:20;26.97;;;16.20;;
18290;SDS011;9271;48.590;8.866;2024-03-08T04:47:46;30.20;;;16.60;;
18290;SDS011;9271;48.590;8.866;2024-03-08T04:50:13;31.40;;;16.87;;
18290;SDS011;9271;48.590;8.866;2024-03-08T04:52:40;28.73;;;17.07;;
18290;SDS011;9271;48.590;8.866;2024-03-08T04:55:06;28.60;;;17.00;;
18290;SDS011;9271;48.590;8.866;2024-03-08T04:57:34;27.30;;;15.23;;
18290;SDS011;9271;48.590;8.866;2024-03-08T05:00:01;30.30;;;15.67;;
18290;SDS011;9271;48.590;8.866;2024-03-08T05:02:29;28.30;;;16.13;;
18290;SDS011;9271;48.590;8.866;2024-03-08T05:04:56;31.03;;;17.07;;
18290;SDS011;9271;48.590;8.866;2024-03-08T05:07:23;26.97;;;15.50;;
18290;SDS011;9271;48.590;8.866;2024-03-08T05:09:50;28.93;;;16.57;;
18290;SDS011;9271;48.590;8.866;2024-03-08T05:12:17;27.70;;;16.87;;
18290;SDS011;9271;48.590;8.866;2024-03-08T05:14:46;27.37;;;16.10;;
18290;SDS011;9271;48.590;8.866;2024-03-08T05:17:14;27.43;;;15.63;;
18290;SDS011;9271;48.590;8.866;2024-03-08T05:19:41;27.13;;;15.67;;
18290;SDS011;9271;48.590;8.866;2024-03-08T05:22:08;25.40;;;16.03;;
18290;SDS011;9271;48.590;8.866;2024-03-08T05:24:35;30.23;;;16.80;;
18290;SDS011;9271;48.590;8.866;2024-03-08T05:27:01;28.63;;;16.80;;
18290;SDS011;9271;48.590;8.866;2024-03-08T05:29:28;33.03;;;17.10;;
18290;SDS011;9271;48.590;8.866;2024-03-08T05:31:56;28.23;;;16.60;;
18290;SDS011;9271;48.590;8.866;2024-03-08T05:34:24;30.53;;;16.50;;
18290;SDS011;9271;48.590;8.866;2024-03-08T05:36:51;26.90;;;15.90;;
18290;SDS011;9271;48.590;8.866;2024-03-08T05:39:19;27.53;;;16.57;;
18290;SDS011;9271;48.590;8.866;2024-03-08T05:41:46;26.40;;;15.87;;
18290;SDS011;9271;48.590;8.866;2024-03-08T05:44:13;28.90;;;17.70;;
18290;SDS011;9271;48.590;8.866;2024-03-08T05:46:42;27.17;;;16.20;;
18290;SDS011;9271;48.590;8.866;2024-03-08T05:49:10;26.93;;;16.37;;
18290;SDS011;9271;48.590;8.866;2024-03-08T05:51:37;27.80;;;17.60;;
18290;SDS011;9271;48.590;8.866;2024-03-08T05:54:05;26.60;;;16.37;;
18290;SDS011;9271;48.590;8.866;2024-03-08T05:56:34;26.63;;;17.07;;
18290;SDS011;9271;48.590;8.866;2024-03-08T05:59:02;30.63;;;16.73;;
18290;SDS011;9271;48.590;8.866;2024-03-08T06:01:29;25.10;;;16.43;;
18290;SDS011;9271;48.590;8.866;2024-03-08T06:03:57;28.40;;;17.40;;
18290;SDS011;9271;48.590;8.866;2024-03-08T06:06:25;29.20;;;17.10;;
18290;SDS011;9271;48.590;8.866;2024-03-08T06:08:52;25.60;;;16.70;;
18290;SDS011;9271;48.590;8.866;2024-03-08T06:11:21;26.67;;;16.77;;
18290;SDS011;9271;48.590;8.866;2024-03-08T06:13:48;24.90;;;15.63;;
18290;SDS011;9271;48.590;8.866;2024-03-08T06:16:15;23.33;;;16.33;;
18290;SDS011;9271;48.590;8.866;2024-03-08T06:18:42;25.83;;;15.70;;
18290;SDS011;9271;48.590;8.866;2024-03-08T06:21:09;24.17;;;16.17;;
18290;SDS011;9271;48.590;8.866;2024-03-08T06:23:37;23.03;;;15.83;;
18290;SDS011;9271;48.590;8.866;2024-03-08T06:26:04;23.27;;;15.73;;
18290;SDS011;9271;48.590;8.866;2024-03-08T06:28:31;20.93;;;15.07;;
18290;SDS011;9271;48.590;8.866;2024-03-08T06:30:59;21.30;;;15.40;;
18290;SDS011;9271;48.590;8.866;2024-03-08T06:33:26;22.93;;;15.63;;
18290;SDS011;9271;48.590;8.866;2024-03-08T06:35:53;23.00;;;15.70;;
18290;SDS011;9271;48.590;8.866;2024-03-08T06:38:22;19.93;;;13.97;;
18290;SDS011;9271;48.590;8.866;2024-03-08T06:40:50;22.53;;;15.30;;
18290;SDS011;9271;48.590;8.866;2024-03-08T06:43:17;24.57;;;14.90;;
18290;SDS011;9271;48.590;8.866;2024-03-08T06:45:43;21.63;;;14.57;;
18290;SDS011;9271;48.590;8.866;2024-03-08T06:48:13;18.10;;;14.03;;
18290;SDS011;9271;48.590;8.866;2024-03-08T06:50:40;21.00;;;15.00;;
18290;SDS011;9271;48.590;8.866;2024-03-08T06:53:06;19.73;;;14.63;;
18290;SDS011;9271;48.590;8.866;2024-03-08T06:55:33;18.27;;;13.50;;
18290;SDS011;9271;48.590;8.866;2024-03-08T06:58:01;20.67;;;15.20;;
18290;SDS011;9271;48.590;8.866;2024-03-08T07:00:28;19.13;;;13.80;;
18290;SDS011;9271;48.590;8.866;2024-03-08T07:02:55;17.23;;;13.80;;
18290;SDS011;9271;48.590;8.866;2024-03-08T07:05:25;19.00;;;13.87;;
18290;SDS011;9271;48.590;8.866;2024-03-08T07:07:52;19.47;;;13.93;;
18290;SDS011;9271;48.590;8.866;2024-03-08T07:10:19;18.30;;;13.60;;
18290;SDS011;9271;48.590;8.866;2024-03-08T07:12:48;18.70;;;13.90;;
18290;SDS011;9271;48.590;8.866;2024-03-08T07:15:16;17.63;;;13.50;;
18290;SDS011;9271;48.590;8.866;2024-03-08T07:17:44;18.30;;;13.37;;
18290;SDS011;9271;48.590;8.866;2024-03-08T07:20:11;19.63;;;13.60;;
18290;SDS011;9271;48.590;8.866;2024-03-08T07:22:40;18.43;;;13.40;;
18290;SDS011;9271;48.590;8.866;2024-03-08T07:25:07;17.67;;;13.33;;
18290;SDS011;9271;48.590;8.866;2024-03-08T07:27:45;17.30;;;12.70;;
18290;SDS011;9271;48.590;8.866;2024-03-08T07:30:12;17.43;;;13.60;;
18290;SDS011;9271;48.590;8.866;2024-03-08T07:33:00;17.00;;;12.27;;
18290;SDS011;9271;48.590;8.866;2024-03-08T07:35:27;17.60;;;12.90;;
18290;SDS011;9271;48.590;8.866;2024-03-08T07:37:54;14.97;;;12.13;;
18290;SDS011;9271;48.590;8.866;2024-03-08T07:40:20;16.53;;;12.70;;
18290;SDS011;9271;48.590;8.866;2024-03-08T07:42:48;16.30;;;12.40;;
18290;SDS011;9271;48.590;8.866;2024-03-08T07:45:15;15.27;;;12.17;;
18290;SDS011;9271;48.590;8.866;2024-03-08T07:47:42;16.57;;;12.53;;
18290;SDS011;9271;48.590;8.866;2024-03-08T07:50:10;17.00;;;11.70;;
18290;SDS011;9271;48.590;8.866;2024-03-08T07:52:40;16.33;;;12.30;;
18290;SDS011;9271;48.590;8.866;2024-03-08T07:55:07;16.37;;;12.90;;
18290;SDS011;9271;48.590;8.866;2024-03-08T07:57:35;14.93;;;11.57;;
18290;SDS011;9271;48.590;8.866;2024-03-08T08:00:03;16.80;;;12.70;;
18290;SDS011;9271;48.590;8.866;2024-03-08T08:02:32;13.80;;;12.10;;
18290;SDS011;9271;48.590;8.866;2024-03-08T08:04:59;14.43;;;11.60;;
18290;SDS011;9271;48.590;8.866;2024-03-08T08:07:27;15.70;;;12.07;;
18290;SDS011;9271;48.590;8.866;2024-03-08T08:09:53;16.43;;;11.60;;
18290;SDS011;9271;48.590;8.866;2024-03-08T08:12:20;16.33;;;11.80;;
18290;SDS011;9271;48.590;8.866;2024-03-08T08:14:47;14.17;;;11.47;;
18290;SDS011;9271;48.590;8.866;2024-03-08T08:17:13;13.60;;;11.33;;
18290;SDS011;9271;48.590;8.866;2024-03-08T08:19:40;14.27;;;11.63;;
18290;SDS011;9271;48.590;8.866;2024-03-08T08:22:08;15.30;;;11.40;;
18290;SDS011;9271;48.590;8.866;2024-03-08T08:24:36;14.67;;;11.73;;
18290;SDS011;9271;48.590;8.866;2024-03-08T08:27:02;15.97;;;11.73;;
18290;SDS011;9271;48.590;8.866;2024-03-08T08:29:29;14.67;;;11.60;;
18290;SDS011;9271;48.590;8.866;2024-03-08T08:31:58;16.53;;;11.20;;
18290;SDS011;9271;48.590;8.866;2024-03-08T08:34:25;15.20;;;12.10;;
18290;SDS011;9271;48.590;8.866;2024-03-08T08:36:51;15.03;;;10.87;;
18290;SDS011;9271;48.590;8.866;2024-03-08T08:39:19;14.60;;;11.37;;
18290;SDS011;9271;48.590;8.866;2024-03-08T08:41:49;15.83;;;11.57;;
18290;SDS011;9271;48.590;8.866;2024-03-08T08:44:15;15.63;;;12.10;;
18290;SDS011;9271;48.590;8.866;2024-03-08T08:46:42;15.77;;;12.10;;
18290;SDS011;9271;48.590;8.866;2024-03-08T08:49:09;13.87;;;11.13;;
18290;SDS011;9271;48.590;8.866;2024-03-08T08:51:39;14.97;;;11.37;;
18290;SDS011;9271;48.590;8.866;2024-03-08T08:54:06;15.43;;;11.77;;
18290;SDS011;9271;48.590;8.866;2024-03-08T08:56:32;13.20;;;10.67;;
18290;SDS011;9271;48.590;8.866;2024-03-08T08:59:01;14.07;;;11.00;;
18290;SDS011;9271;48.590;8.866;2024-03-08T09:01:28;13.87;;;10.97;;
18290;SDS011;9271;48.590;8.866;2024-03-08T09:03:55;11.80;;;9.83;;
18290;SDS011;9271;48.590;8.866;2024-03-08T09:06:22;14.40;;;10.60;;
18290;SDS011;9271;48.590;8.866;2024-03-08T09:08:50;12.87;;;10.47;;
18290;SDS011;9271;48.590;8.866;2024-03-08T09:11:17;13.93;;;10.03;;
18290;SDS011;9271;48.590;8.866;2024-03-08T09:13:45;13.27;;;10.43;;
18290;SDS011;9271;48.590;8.866;2024-03-08T09:16:13;13.80;;;10.77;;
18290;SDS011;9271;48.590;8.866;2024-03-08T09:18:41;12.97;;;10.57;;
18290;SDS011;9271;48.590;8.866;2024-03-08T09:21:07;13.07;;;10.83;;
18290;SDS011;9271;48.590;8.866;2024-03-08T09:23:35;14.87;;;11.07;;
18290;SDS011;9271;48.590;8.866;2024-03-08T09:26:01;12.30;;;9.97;;
18290;SDS011;9271;48.590;8.866;2024-03-08T09:28:29;13.10;;;10.00;;
18290;SDS011;9271;48.590;8.866;2024-03-08T09:30:55;12.73;;;9.80;;
18290;SDS011;9271;48.590;8.866;2024-03-08T09:33:25;15.60;;;11.20;;
18290;SDS011;9271;48.590;8.866;2024-03-08T09:35:53;12.37;;;10.40;;
18290;SDS011;9271;48.590;8.866;2024-03-08T09:38:22;14.27;;;10.67;;
18290;SDS011;9271;48.590;8.866;2024-03-08T09:40:50;12.40;;;10.17;;
18290;SDS011;9271;48.590;8.866;2024-03-08T09:43:16;11.60;;;9.23;;
18290;SDS011;9271;48.590;8.866;2024-03-08T09:45:43;12.70;;;9.57;;
18290;SDS011;9271;48.590;8.866;2024-03-08T09:48:11;13.80;;;10.23;;
18290;SDS011;9271;48.590;8.866;2024-03-08T09:50:40;12.23;;;9.40;;
18290;SDS011;9271;48.590;8.866;2024-03-08T09:53:07;10.73;;;9.13;;
18290;SDS011;9271;48.590;8.866;2024-03-08T09:55:34;12.47;;;10.53;;
18290;SDS011;9271;48.590;8.866;2024-03-08T09:58:02;12.20;;;9.40;;
18290;SDS011;9271;48.590;8.866;2024-03-08T10:01:01;10.90;;;9.20;;
18290;SDS011;9271;48.590;8.866;2024-03-08T10:03:29;11.20;;;9.03;;
18290;SDS011;9271;48.590;8.866;2024-03-08T10:05:58;11.07;;;9.17;;
18290;SDS011;9271;48.590;8.866;2024-03-08T10:08:26;11.50;;;8.90;;
18290;SDS011;9271;48.590;8.866;2024-03-08T10:10:54;11.93;;;9.00;;
18290;SDS011;9271;48.590;8.866;2024-03-08T10:13:23;10.90;;;9.03;;
18290;SDS011;9271;48.590;8.866;2024-03-08T10:15:51;10.90;;;9.37;;
18290;SDS011;9271;48.590;8.866;2024-03-08T10:18:18;10.80;;;9.07;;
18290;SDS011;9271;48.590;8.866;2024-03-08T10:20:46;10.90;;;9.17;;
18290;SDS011;9271;48.590;8.866;2024-03-08T10:23:30;12.00;;;9.47;;
18290;SDS011;9271;48.590;8.866;2024-03-08T10:25:57;13.40;;;10.07;;
18290;SDS011;9271;48.590;8.866;2024-03-08T10:28:23;10.50;;;9.40;;
18290;SDS011;9271;48.590;8.866;2024-03-08T10:30:50;11.27;;;9.37;;
18290;SDS011;9271;48.590;8.866;2024-03-08T10:33:17;12.43;;;9.87;;
18290;SDS011;9271;48.590;8.866;2024-03-08T10:35:44;10.10;;;8.80;;
18290;SDS011;9271;48.590;8.866;2024-03-08T10:38:10;11.00;;;9.43;;
18290;SDS011;9271;48.590;8.866;2024-03-08T10:40:45;11.30;;;9.87;;
18290;SDS011;9271;48.590;8.866;2024-03-08T10:43:18;10.60;;;9.10;;
18290;SDS011;9271;48.590;8.866;2024-03-08T10:45:50;11.73;;;9.53;;
18290;SDS011;9271;48.590;8.866;2024-03-08T10:48:31;9.97;;;8.53;;
18290;SDS011;9271;48.590;8.866;2024-03-08T10:50:58;10.63;;;8.90;;
18290;SDS011;9271;48.590;8.866;2024-03-08T10:53:26;11.10;;;8.93;;
18290;SDS011;9271;48.590;8.866;2024-03-08T10:55:55;11.60;;;9.27;;
18290;SDS011;9271;48.590;8.866;2024-03-08T10:58:23;11.33;;;8.97;;
18290;SDS011;9271;48.590;8.866;2024-03-08T11:00:52;9.73;;;8.70;;
18290;SDS011;9271;48.590;8.866;2024-03-08T11:06:14;9.87;;;8.67;;
18290;SDS011;9271;48.590;8.866;2024-03-08T11:08:43;10.10;;;8.47;;
18290;SDS011;9271;48.590;8.866;2024-03-08T11:11:27;9.77;;;8.53;;
18290;SDS011;9271;48.590;8.866;2024-03-08T11:13:56;11.03;;;8.80;;
18290;SDS011;9271;48.590;8.866;2024-03-08T11:16:38;10.33;;;8.53;;
18290;SDS011;9271;48.590;8.866;2024-03-08T11:19:23;10.43;;;8.97;;
18290;SDS011;9271;48.590;8.866;2024-03-08T11:21:56;10.77;;;9.10;;
18290;SDS011;9271;48.590;8.866;2024-03-08T11:24:24;10.27;;;8.73;;
18290;SDS011;9271;48.590;8.866;2024-03-08T11:26:55;9.70;;;8.70;;
18290;SDS011;9271;48.590;8.866;2024-03-08T11:29:34;9.60;;;8.53;;
18290;SDS011;9271;48.590;8.866;2024-03-08T11:32:03;9.67;;;8.60;;
18290;SDS011;9271;48.590;8.866;2024-03-08T11:34:31;10.95;;;9.85;;
18290;SDS011;9271;48.590;8.866;2024-03-08T11:36:59;10.23;;;9.10;;
18290;SDS011;9271;48.590;8.866;2024-03-08T11:39:26;11.50;;;9.50;;
18290;SDS011;9271;48.590;8.866;2024-03-08T11:41:53;11.83;;;9.87;;
18290;SDS011;9271;48.590;8.866;2024-03-08T11:44:21;9.63;;;8.47;;
18290;SDS011;9271;48.590;8.866;2024-03-08T11:46:53;9.27;;;8.27;;
18290;SDS011;9271;48.590;8.866;2024-03-08T11:49:20;11.10;;;8.87;;
18290;SDS011;9271;48.590;8.866;2024-03-08T11:51:47;10.47;;;9.13;;
18290;SDS011;9271;48.590;8.866;2024-03-08T11:54:17;18.23;;;15.93;;
18290;SDS011;9271;48.590;8.866;2024-03-08T11:56:44;13.23;;;11.83;;
18290;SDS011;9271;48.590;8.866;2024-03-08T11:59:14;11.93;;;10.70;;
18290;SDS011;9271;48.590;8.866;2024-03-08T12:01:42;12.37;;;11.07;;
18290;SDS011;9271;48.590;8.866;2024-03-08T12:04:11;14.23;;;12.77;;
18290;SDS011;9271;48.590;8.866;2024-03-08T12:06:39;10.47;;;8.77;;
18290;SDS011;9271;48.590;8.866;2024-03-08T12:09:07;9.47;;;8.57;;
18290;SDS011;9271;48.590;8.866;2024-03-08T12:11:35;9.20;;;8.07;;
18290;SDS011;9271;48.590;8.866;2024-03-08T12:14:02;9.63;;;8.63;;
18290;SDS011;9271;48.590;8.866;2024-03-08T12:16:30;9.47;;;8.27;;
18290;SDS011;9271;48.590;8.866;2024-03-08T12:18:57;10.23;;;9.13;;
18290;SDS011;9271;48.590;8.866;2024-03-08T12:21:25;13.73;;;11.37;;
18290;SDS011;9271;48.590;8.866;2024-03-08T12:24:04;10.30;;;9.30;;
18290;SDS011;9271;48.590;8.866;2024-03-08T12:26:34;10.03;;;9.03;;
18290;SDS011;9271;48.590;8.866;2024-03-08T12:29:14;10.60;;;9.60;;
18290;SDS011;9271;48.590;8.866;2024-03-08T12:31:44;10.67;;;9.67;;
18290;SDS011;9271;48.590;8.866;2024-03-08T12:34:11;10.23;;;9.30;;
18290;SDS011;9271;48.590;8.866;2024-03-08T12:36:44;10.70;;;9.63;;
18290;SDS011;9271;48.590;8.866;2024-03-08T12:39:13;10.90;;;9.80;;
18290;SDS011;9271;48.590;8.866;2024-03-08T12:41:42;10.57;;;9.63;;
18290;SDS011;9271;48.590;8.866;2024-03-08T12:44:09;10.65;;;9.65;;
18290;SDS011;9271;48.590;8.866;2024-03-08T12:46:36;11.23;;;10.13;;
18290;SDS011;9271;48.590;8.866;2024-03-08T12:49:06;11.23;;;9.93;;
18290;SDS011;9271;48.590;8.866;2024-03-08T12:51:34;10.90;;;9.90;;
18290;SDS011;9271;48.590;8.866;2024-03-08T12:54:01;11.13;;;10.03;;
18290;SDS011;9271;48.590;8.866;2024-03-08T12:56:28;11.80;;;10.40;;
18290;SDS011;9271;48.590;8.866;2024-03-08T12:58:57;11.30;;;10.20;;
18290;SDS011;9271;48.590;8.866;2024-03-08T13:01:25;11.93;;;10.73;;
18290;SDS011;9271;48.590;8.866;2024-03-08T13:03:51;11.13;;;10.03;;
18290;SDS011;9271;48.590;8.866;2024-03-08T13:06:20;10.70;;;9.70;;
18290;SDS011;9271;48.590;8.866;2024-03-08T13:08:49;11.63;;;10.43;;
18290;SDS011;9271;48.590;8.866;2024-03-08T13:11:16;10.73;;;9.73;;
18290;SDS011;9271;48.590;8.866;2024-03-08T13:13:44;10.83;;;9.83;;
18290;SDS011;9271;48.590;8.866;2024-03-08T13:16:11;12.97;;;10.07;;
18290;SDS011;9271;48.590;8.866;2024-03-08T13:18:39;10.57;;;9.47;;
18290;SDS011;9271;48.590;8.866;2024-03-08T13:21:08;11.57;;;10.00;;
18290;SDS011;9271;48.590;8.866;2024-03-08T13:23:37;11.07;;;9.83;;
18290;SDS011;9271;48.590;8.866;2024-03-08T13:26:05;11.20;;;10.03;;
18290;SDS011;9271;48.590;8.866;2024-03-08T13:28:32;10.50;;;9.50;;
18290;SDS011;9271;48.590;8.866;2024-03-08T13:31:02;10.77;;;9.67;;
18290;SDS011;9271;48.590;8.866;2024-03-08T13:33:31;10.20;;;9.20;;
18290;SDS011;9271;48.590;8.866;2024-03-08T13:36:00;10.93;;;9.83;;
18290;SDS011;9271;48.590;8.866;2024-03-08T13:38:29;11.17;;;10.07;;
18290;SDS011;9271;48.590;8.866;2024-03-08T13:40:58;10.77;;;9.77;;
18290;SDS011;9271;48.590;8.866;2024-03-08T13:43:25;12.90;;;9.90;;
18290;SDS011;9271;48.590;8.866;2024-03-08T13:45:53;10.87;;;9.83;;
18290;SDS011;9271;48.590;8.866;2024-03-08T13:48:20;11.37;;;9.93;;
18290;SDS011;9271;48.590;8.866;2024-03-08T13:50:47;10.27;;;9.27;;
18290;SDS011;9271;48.590;8.866;2024-03-08T13:53:14;10.07;;;9.07;;
18290;SDS011;9271;48.590;8.866;2024-03-08T13:55:41;10.73;;;9.73;;
18290;SDS011;9271;48.590;8.866;2024-03-08T13:58:09;10.70;;;9.60;;
18290;SDS011;9271;48.590;8.866;2024-03-08T14:00:38;10.73;;;9.63;;
18290;SDS011;9271;48.590;8.866;2024-03-08T14:03:08;10.97;;;9.77;;
18290;SDS011;9271;48.590;8.866;2024-03-08T14:05:38;10.40;;;9.40;;
18290;SDS011;9271;48.590;8.866;2024-03-08T14:08:05;12.30;;;9.73;;
18290;SDS011;9271;48.590;8.866;2024-03-08T14:10:32;10.47;;;9.47;;
18290;SDS011;9271;48.590;8.866;2024-03-08T14:12:59;10.90;;;9.77;;
18290;SDS011;9271;48.590;8.866;2024-03-08T14:15:29;10.40;;;9.40;;
18290;SDS011;9271;48.590;8.866;2024-03-08T14:17:56;10.93;;;9.83;;
18290;SDS011;9271;48.590;8.866;2024-03-08T14:20:22;10.67;;;9.60;;
18290;SDS011;9271;48.590;8.866;2024-03-08T14:22:50;10.67;;;9.53;;
18290;SDS011;9271;48.590;8.866;2024-03-08T14:25:17;9.97;;;8.97;;
18290;SDS011;9271;48.590;8.866;2024-03-08T14:27:44;12.07;;;9.30;;
18290;SDS011;9271;48.590;8.866;2024-03-08T14:30:11;9.97;;;8.83;;
18290;SDS011;9271;48.590;8.866;2024-03-08T14:32:40;9.77;;;8.77;;
18290;SDS011;9271;48.590;8.866;2024-03-08T14:35:07;11.27;;;9.70;;
18290;SDS011;9271;48.590;8.866;2024-03-08T14:37:36;10.53;;;9.47;;
18290;SDS011;9271;48.590;8.866;2024-03-08T14:40:03;10.43;;;9.43;;
18290;SDS011;9271;48.590;8.866;2024-03-08T14:42:31;10.67;;;9.57;;
18290;SDS011;9271;48.590;8.866;2024-03-08T14:44:57;9.93;;;8.70;;